sensor_id;sensor_type;location;lat;lon;timestamp;temperature;humidity
50556;DHT22;36508;52.512;13.450;2022-07-10T00:00:35;14.80;99.90
50556;DHT22;36508;52.512;13.450;2022-07-10T00:03:04;14.90;99.90
50556;DHT22;36508;52.512;13.450;2022-07-10T00:05:31;14.90;99.90
50556;DHT22;36508;52.512;13.450;2022-07-10T00:07:57;14.90;99.90
50556;DHT22;36508;52.512;13.450;2022-07-10T00:10:23;15.00;99.90
50556;DHT22;36508;52.512;13.450;2022-07-10T00:12:51;15.00;99.90
50556;DHT22;36508;52.512;13.450;2022-07-10T00:15:17;15.00;99.90
50556;DHT22;36508;52.512;13.450;2022-07-10T00:17:44;15.00;99.90
50556;DHT22;36508;52.512;13.450;2022-07-10T00:20:11;15.00;99.90
50556;DHT22;36508;52.512;13.450;2022-07-10T00:22:37;15.00;99.90
50556;DHT22;36508;52.512;13.450;2022-07-10T00:25:09;15.00;99.90
50556;DHT22;36508;52.512;13.450;2022-07-10T00:27:35;15.10;99.90
50556;DHT22;36508;52.512;13.450;2022-07-10T00:30:01;15.10;99.90
50556;DHT22;36508;52.512;13.450;2022-07-10T00:32:27;15.10;99.90
50556;DHT22;36508;52.512;13.450;2022-07-10T00:34:52;15.10;99.90
50556;DHT22;36508;52.512;13.450;2022-07-10T00:37:18;15.20;99.90
50556;DHT22;36508;52.512;13.450;2022-07-10T00:39:47;15.10;99.90
50556;DHT22;36508;52.512;13.450;2022-07-10T00:42:14;15.10;99.90
50556;DHT22;36508;52.512;13.450;2022-07-10T00:44:41;15.10;99.90
50556;DHT22;36508;52.512;13.450;2022-07-10T00:47:09;15.00;99.90
50556;DHT22;36508;52.512;13.450;2022-07-10T00:49:37;15.00;99.90
50556;DHT22;36508;52.512;13.450;2022-07-10T00:52:07;14.90;99.90
50556;DHT22;36508;52.512;13.450;2022-07-10T00:54:34;14.90;99.90
50556;DHT22;36508;52.512;13.450;2022-07-10T00:57:03;14.90;99.90
50556;DHT22;36508;52.512;13.450;2022-07-10T00:59:29;14.90;99.90
50556;DHT22;36508;52.512;13.450;2022-07-10T01:01:55;14.90;99.90
50556;DHT22;36508;52.512;13.450;2022-07-10T01:04:21;14.90;99.90
50556;DHT22;36508;52.512;13.450;2022-07-10T01:06:47;15.00;99.90
50556;DHT22;36508;52.512;13.450;2022-07-10T01:09:13;14.90;99.90
50556;DHT22;36508;52.512;13.450;2022-07-10T01:11:39;14.90;99.90
50556;DHT22;36508;52.512;13.450;2022-07-10T01:14:06;14.80;99.90
50556;DHT22;36508;52.512;13.450;2022-07-10T01:16:32;14.80;99.90
50556;DHT22;36508;52.512;13.450;2022-07-10T01:18:58;14.80;99.90
50556;DHT22;36508;52.512;13.450;2022-07-10T01:23:54;14.90;99.90
50556;DHT22;36508;52.512;13.450;2022-07-10T01:26:21;14.90;99.90
50556;DHT22;36508;52.512;13.450;2022-07-10T01:28:52;14.80;99.90
50556;DHT22;36508;52.512;13.450;2022-07-10T01:31:20;14.90;99.90
50556;DHT22;36508;52.512;13.450;2022-07-10T01:33:46;14.80;99.90
50556;DHT22;36508;52.512;13.450;2022-07-10T01:36:13;14.70;99.90
50556;DHT22;36508;52.512;13.450;2022-07-10T01:38:42;14.80;99.90
50556;DHT22;36508;52.512;13.450;2022-07-10T01:41:08;14.80;99.90
50556;DHT22;36508;52.512;13.450;2022-07-10T01:43:37;14.80;99.90
50556;DHT22;36508;52.512;13.450;2022-07-10T01:46:03;14.90;99.90
50556;DHT22;36508;52.512;13.450;2022-07-10T01:48:30;14.80;99.90
50556;DHT22;36508;52.512;13.450;2022-07-10T01:50:57;14.80;99.90
50556;DHT22;36508;52.512;13.450;2022-07-10T01:53:22;14.70;99.90
50556;DHT22;36508;52.512;13.450;2022-07-10T01:55:48;14.70;99.90
50556;DHT22;36508;52.512;13.450;2022-07-10T01:58:14;14.70;99.90
50556;DHT22;36508;52.512;13.450;2022-07-10T02:00:40;14.70;99.90
50556;DHT22;36508;52.512;13.450;2022-07-10T02:03:06;14.70;99.90
50556;DHT22;36508;52.512;13.450;2022-07-10T02:05:50;14.70;99.90
50556;DHT22;36508;52.512;13.450;2022-07-10T02:08:15;14.70;99.90
50556;DHT22;36508;52.512;13.450;2022-07-10T02:10:41;14.60;99.90
50556;DHT22;36508;52.512;13.450;2022-07-10T02:13:07;14.60;99.90
50556;DHT22;36508;52.512;13.450;2022-07-10T02:15:33;14.50;99.90
50556;DHT22;36508;52.512;13.450;2022-07-10T02:17:58;14.60;99.90
50556;DHT22;36508;52.512;13.450;2022-07-10T02:20:24;14.50;99.90
50556;DHT22;36508;52.512;13.450;2022-07-10T02:22:49;14.60;99.90
50556;DHT22;36508;52.512;13.450;2022-07-10T02:25:15;14.60;99.90
50556;DHT22;36508;52.512;13.450;2022-07-10T02:27:41;14.60;99.90
50556;DHT22;36508;52.512;13.450;2022-07-10T02:30:07;14.60;99.90
50556;DHT22;36508;52.512;13.450;2022-07-10T02:32:32;14.60;99.90
50556;DHT22;36508;52.512;13.450;2022-07-10T02:34:58;14.60;99.90
50556;DHT22;36508;52.512;13.450;2022-07-10T02:37:24;14.50;99.90
50556;DHT22;36508;52.512;13.450;2022-07-10T02:39:50;14.60;99.90
50556;DHT22;36508;52.512;13.450;2022-07-10T02:42:16;14.50;99.90
50556;DHT22;36508;52.512;13.450;2022-07-10T02:44:41;14.40;99.90
50556;DHT22;36508;52.512;13.450;2022-07-10T02:47:07;14.30;99.90
50556;DHT22;36508;52.512;13.450;2022-07-10T02:49:33;14.30;99.90
50556;DHT22;36508;52.512;13.450;2022-07-10T02:51:58;14.30;99.90
50556;DHT22;36508;52.512;13.450;2022-07-10T02:54:24;14.30;99.90
50556;DHT22;36508;52.512;13.450;2022-07-10T02:56:50;14.30;99.90
50556;DHT22;36508;52.512;13.450;2022-07-10T02:59:16;14.20;99.90
50556;DHT22;36508;52.512;13.450;2022-07-10T03:01:44;14.20;99.90
50556;DHT22;36508;52.512;13.450;2022-07-10T03:04:09;14.20;99.90
50556;DHT22;36508;52.512;13.450;2022-07-10T03:06:35;14.10;99.90
50556;DHT22;36508;52.512;13.450;2022-07-10T03:09:01;14.10;99.90
50556;DHT22;36508;52.512;13.450;2022-07-10T03:11:28;14.10;99.90
50556;DHT22;36508;52.512;13.450;2022-07-10T03:13:54;14.20;99.90
50556;DHT22;36508;52.512;13.450;2022-07-10T03:16:20;14.10;99.90
50556;DHT22;36508;52.512;13.450;2022-07-10T03:18:45;14.10;99.90
50556;DHT22;36508;52.512;13.450;2022-07-10T03:21:11;14.10;99.90
50556;DHT22;36508;52.512;13.450;2022-07-10T03:23:37;14.10;99.90
50556;DHT22;36508;52.512;13.450;2022-07-10T03:26:05;14.00;99.90
50556;DHT22;36508;52.512;13.450;2022-07-10T03:28:31;14.00;99.90
50556;DHT22;36508;52.512;13.450;2022-07-10T03:30:56;14.00;99.90
50556;DHT22;36508;52.512;13.450;2022-07-10T03:33:22;14.00;99.90
50556;DHT22;36508;52.512;13.450;2022-07-10T03:35:48;14.10;99.90
50556;DHT22;36508;52.512;13.450;2022-07-10T03:38:14;14.00;99.90
50556;DHT22;36508;52.512;13.450;2022-07-10T03:40:39;14.10;99.90
50556;DHT22;36508;52.512;13.450;2022-07-10T03:43:05;14.00;99.90
50556;DHT22;36508;52.512;13.450;2022-07-10T03:45:31;14.10;99.90
50556;DHT22;36508;52.512;13.450;2022-07-10T03:47:58;14.00;99.90
50556;DHT22;36508;52.512;13.450;2022-07-10T03:50:24;14.00;99.90
50556;DHT22;36508;52.512;13.450;2022-07-10T03:52:50;14.00;99.90
50556;DHT22;36508;52.512;13.450;2022-07-10T03:55:16;14.00;99.90
50556;DHT22;36508;52.512;13.450;2022-07-10T03:57:41;14.00;99.90
50556;DHT22;36508;52.512;13.450;2022-07-10T04:00:27;14.00;99.90
50556;DHT22;36508;52.512;13.450;2022-07-10T04:03:00;14.00;99.90
50556;DHT22;36508;52.512;13.450;2022-07-10T04:05:27;14.00;99.90
50556;DHT22;36508;52.512;13.450;2022-07-10T04:07:53;14.00;99.90
50556;DHT22;36508;52.512;13.450;2022-07-10T04:10:19;14.10;99.90
50556;DHT22;36508;52.512;13.450;2022-07-10T04:12:46;14.20;99.90
50556;DHT22;36508;52.512;13.450;2022-07-10T04:15:13;14.20;99.90
50556;DHT22;36508;52.512;13.450;2022-07-10T04:17:39;14.20;99.90
50556;DHT22;36508;52.512;13.450;2022-07-10T04:20:05;14.20;99.90
50556;DHT22;36508;52.512;13.450;2022-07-10T04:22:33;14.20;99.90
50556;DHT22;36508;52.512;13.450;2022-07-10T04:24:59;14.20;99.90
50556;DHT22;36508;52.512;13.450;2022-07-10T04:27:25;14.20;99.90
50556;DHT22;36508;52.512;13.450;2022-07-10T04:29:51;14.10;99.90
50556;DHT22;36508;52.512;13.450;2022-07-10T04:32:17;14.00;99.90
50556;DHT22;36508;52.512;13.450;2022-07-10T04:34:43;13.90;99.90
50556;DHT22;36508;52.512;13.450;2022-07-10T04:37:09;13.90;99.90
50556;DHT22;36508;52.512;13.450;2022-07-10T04:39:36;13.90;99.90
50556;DHT22;36508;52.512;13.450;2022-07-10T04:42:03;14.00;99.90
50556;DHT22;36508;52.512;13.450;2022-07-10T04:44:30;14.00;99.90
50556;DHT22;36508;52.512;13.450;2022-07-10T04:46:56;13.90;99.90
50556;DHT22;36508;52.512;13.450;2022-07-10T04:49:22;13.90;99.90
50556;DHT22;36508;52.512;13.450;2022-07-10T04:51:48;13.90;99.90
50556;DHT22;36508;52.512;13.450;2022-07-10T04:54:14;14.00;99.90
50556;DHT22;36508;52.512;13.450;2022-07-10T04:56:39;14.00;99.90
50556;DHT22;36508;52.512;13.450;2022-07-10T04:59:05;14.00;99.90
50556;DHT22;36508;52.512;13.450;2022-07-10T05:01:31;14.00;99.90
50556;DHT22;36508;52.512;13.450;2022-07-10T05:04:06;14.10;99.90
50556;DHT22;36508;52.512;13.450;2022-07-10T05:06:33;14.10;99.90
50556;DHT22;36508;52.512;13.450;2022-07-10T05:09:00;14.20;99.90
50556;DHT22;36508;52.512;13.450;2022-07-10T05:11:25;14.20;99.90
50556;DHT22;36508;52.512;13.450;2022-07-10T05:13:51;14.20;99.90
50556;DHT22;36508;52.512;13.450;2022-07-10T05:16:17;14.20;99.90
50556;DHT22;36508;52.512;13.450;2022-07-10T05:18:43;14.20;99.90
50556;DHT22;36508;52.512;13.450;2022-07-10T05:21:10;14.30;99.90
50556;DHT22;36508;52.512;13.450;2022-07-10T05:23:50;14.30;99.90
50556;DHT22;36508;52.512;13.450;2022-07-10T05:26:16;14.20;99.90
50556;DHT22;36508;52.512;13.450;2022-07-10T05:28:41;14.30;99.90
50556;DHT22;36508;52.512;13.450;2022-07-10T05:31:07;14.30;99.90
50556;DHT22;36508;52.512;13.450;2022-07-10T05:33:33;14.40;99.90
50556;DHT22;36508;52.512;13.450;2022-07-10T05:35:59;14.50;99.90
50556;DHT22;36508;52.512;13.450;2022-07-10T05:38:25;14.50;99.90
50556;DHT22;36508;52.512;13.450;2022-07-10T05:40:50;14.60;99.90
50556;DHT22;36508;52.512;13.450;2022-07-10T05:43:18;14.50;99.90
50556;DHT22;36508;52.512;13.450;2022-07-10T05:45:44;14.50;99.90
50556;DHT22;36508;52.512;13.450;2022-07-10T05:48:09;14.50;99.90
50556;DHT22;36508;52.512;13.450;2022-07-10T05:50:37;14.60;99.90
50556;DHT22;36508;52.512;13.450;2022-07-10T05:53:02;14.50;99.90
50556;DHT22;36508;52.512;13.450;2022-07-10T05:55:28;14.60;99.90
50556;DHT22;36508;52.512;13.450;2022-07-10T05:57:53;14.60;99.90
50556;DHT22;36508;52.512;13.450;2022-07-10T06:00:20;14.40;99.90
50556;DHT22;36508;52.512;13.450;2022-07-10T06:02:46;14.50;99.90
50556;DHT22;36508;52.512;13.450;2022-07-10T06:05:11;14.40;99.90
50556;DHT22;36508;52.512;13.450;2022-07-10T06:07:37;14.40;99.90
50556;DHT22;36508;52.512;13.450;2022-07-10T06:10:04;14.50;99.90
50556;DHT22;36508;52.512;13.450;2022-07-10T06:12:31;14.70;99.90
50556;DHT22;36508;52.512;13.450;2022-07-10T06:14:56;14.70;99.90
50556;DHT22;36508;52.512;13.450;2022-07-10T06:17:22;14.80;99.90
50556;DHT22;36508;52.512;13.450;2022-07-10T06:19:48;14.60;99.90
50556;DHT22;36508;52.512;13.450;2022-07-10T06:22:14;14.60;99.90
50556;DHT22;36508;52.512;13.450;2022-07-10T06:25:06;14.60;99.90
50556;DHT22;36508;52.512;13.450;2022-07-10T06:30:38;14.60;99.90
50556;DHT22;36508;52.512;13.450;2022-07-10T06:33:04;14.60;99.90
50556;DHT22;36508;52.512;13.450;2022-07-10T06:35:30;14.80;99.90
50556;DHT22;36508;52.512;13.450;2022-07-10T06:37:55;14.90;99.90
50556;DHT22;36508;52.512;13.450;2022-07-10T06:40:24;15.10;99.90
50556;DHT22;36508;52.512;13.450;2022-07-10T06:42:50;15.20;99.90
50556;DHT22;36508;52.512;13.450;2022-07-10T06:45:16;15.30;99.90
50556;DHT22;36508;52.512;13.450;2022-07-10T06:47:42;15.20;99.90
50556;DHT22;36508;52.512;13.450;2022-07-10T06:50:28;15.10;99.90
50556;DHT22;36508;52.512;13.450;2022-07-10T06:52:56;15.10;99.90
50556;DHT22;36508;52.512;13.450;2022-07-10T06:55:23;15.00;99.90
50556;DHT22;36508;52.512;13.450;2022-07-10T06:57:49;15.10;99.90
50556;DHT22;36508;52.512;13.450;2022-07-10T07:00:15;15.00;99.90
50556;DHT22;36508;52.512;13.450;2022-07-10T07:02:45;15.10;99.90
50556;DHT22;36508;52.512;13.450;2022-07-10T07:05:11;15.40;99.90
50556;DHT22;36508;52.512;13.450;2022-07-10T07:07:36;15.40;99.90
50556;DHT22;36508;52.512;13.450;2022-07-10T07:10:03;15.40;99.90
50556;DHT22;36508;52.512;13.450;2022-07-10T07:12:57;15.50;99.90
50556;DHT22;36508;52.512;13.450;2022-07-10T07:15:22;15.60;99.90
50556;DHT22;36508;52.512;13.450;2022-07-10T07:17:49;15.60;99.90
50556;DHT22;36508;52.512;13.450;2022-07-10T07:20:34;15.60;99.90
50556;DHT22;36508;52.512;13.450;2022-07-10T07:23:19;15.60;99.90
50556;DHT22;36508;52.512;13.450;2022-07-10T07:25:45;15.60;99.90
50556;DHT22;36508;52.512;13.450;2022-07-10T07:28:17;15.70;99.90
50556;DHT22;36508;52.512;13.450;2022-07-10T07:30:49;15.80;99.90
50556;DHT22;36508;52.512;13.450;2022-07-10T07:33:15;15.90;99.90
50556;DHT22;36508;52.512;13.450;2022-07-10T07:35:41;15.80;99.90
50556;DHT22;36508;52.512;13.450;2022-07-10T07:38:08;15.80;99.90
50556;DHT22;36508;52.512;13.450;2022-07-10T07:40:34;15.90;99.90
50556;DHT22;36508;52.512;13.450;2022-07-10T07:43:02;16.00;99.90
50556;DHT22;36508;52.512;13.450;2022-07-10T07:45:29;15.90;99.90
50556;DHT22;36508;52.512;13.450;2022-07-10T07:47:57;15.80;99.90
50556;DHT22;36508;52.512;13.450;2022-07-10T07:50:27;15.90;99.90
50556;DHT22;36508;52.512;13.450;2022-07-10T07:52:54;16.10;99.90
50556;DHT22;36508;52.512;13.450;2022-07-10T07:55:21;16.10;99.90
50556;DHT22;36508;52.512;13.450;2022-07-10T07:57:50;16.20;99.90
50556;DHT22;36508;52.512;13.450;2022-07-10T08:00:17;16.40;99.90
50556;DHT22;36508;52.512;13.450;2022-07-10T08:02:43;16.50;99.90
50556;DHT22;36508;52.512;13.450;2022-07-10T08:05:09;16.50;99.90
50556;DHT22;36508;52.512;13.450;2022-07-10T08:07:38;16.50;99.90
50556;DHT22;36508;52.512;13.450;2022-07-10T08:10:05;16.40;99.90
50556;DHT22;36508;52.512;13.450;2022-07-10T08:12:31;16.50;99.90
50556;DHT22;36508;52.512;13.450;2022-07-10T08:14:58;16.50;99.90
50556;DHT22;36508;52.512;13.450;2022-07-10T08:17:25;16.30;99.90
50556;DHT22;36508;52.512;13.450;2022-07-10T08:19:51;16.30;99.90
50556;DHT22;36508;52.512;13.450;2022-07-10T08:22:16;16.30;99.90
50556;DHT22;36508;52.512;13.450;2022-07-10T08:24:42;16.30;99.90
50556;DHT22;36508;52.512;13.450;2022-07-10T08:27:08;16.50;99.90
50556;DHT22;36508;52.512;13.450;2022-07-10T08:29:34;16.80;99.90
50556;DHT22;36508;52.512;13.450;2022-07-10T08:32:00;17.10;99.90
50556;DHT22;36508;52.512;13.450;2022-07-10T08:34:26;17.50;99.90
50556;DHT22;36508;52.512;13.450;2022-07-10T08:36:53;17.50;99.90
50556;DHT22;36508;52.512;13.450;2022-07-10T08:39:19;17.30;99.90
50556;DHT22;36508;52.512;13.450;2022-07-10T08:41:48;17.30;99.90
50556;DHT22;36508;52.512;13.450;2022-07-10T08:44:17;17.10;99.90
50556;DHT22;36508;52.512;13.450;2022-07-10T08:46:43;16.70;99.90
50556;DHT22;36508;52.512;13.450;2022-07-10T08:49:10;16.50;99.90
50556;DHT22;36508;52.512;13.450;2022-07-10T08:51:45;16.50;99.90
50556;DHT22;36508;52.512;13.450;2022-07-10T08:54:14;16.50;99.90
50556;DHT22;36508;52.512;13.450;2022-07-10T08:56:41;16.50;99.90
50556;DHT22;36508;52.512;13.450;2022-07-10T08:59:07;16.40;99.90
50556;DHT22;36508;52.512;13.450;2022-07-10T09:01:33;16.50;99.90
50556;DHT22;36508;52.512;13.450;2022-07-10T09:04:00;16.60;99.90
50556;DHT22;36508;52.512;13.450;2022-07-10T09:06:28;16.60;99.90
50556;DHT22;36508;52.512;13.450;2022-07-10T09:11:24;16.40;99.90
50556;DHT22;36508;52.512;13.450;2022-07-10T09:14:03;16.30;99.90
50556;DHT22;36508;52.512;13.450;2022-07-10T09:16:34;16.30;99.90
50556;DHT22;36508;52.512;13.450;2022-07-10T09:21:46;16.70;99.90
50556;DHT22;36508;52.512;13.450;2022-07-10T09:24:12;16.90;99.90
50556;DHT22;36508;52.512;13.450;2022-07-10T09:27:00;17.20;99.90
50556;DHT22;36508;52.512;13.450;2022-07-10T09:29:29;17.20;99.90
50556;DHT22;36508;52.512;13.450;2022-07-10T09:31:56;17.30;99.90
50556;DHT22;36508;52.512;13.450;2022-07-10T09:37:25;17.40;99.90
50556;DHT22;36508;52.512;13.450;2022-07-10T09:40:05;17.80;99.90
50556;DHT22;36508;52.512;13.450;2022-07-10T09:42:35;17.90;99.90
50556;DHT22;36508;52.512;13.450;2022-07-10T09:47:44;18.20;99.90
50556;DHT22;36508;52.512;13.450;2022-07-10T09:52:49;17.80;99.90
50556;DHT22;36508;52.512;13.450;2022-07-10T09:55:18;17.90;99.90
50556;DHT22;36508;52.512;13.450;2022-07-10T09:57:47;17.90;99.90
50556;DHT22;36508;52.512;13.450;2022-07-10T10:00:14;17.90;99.90
50556;DHT22;36508;52.512;13.450;2022-07-10T10:02:40;18.00;99.90
50556;DHT22;36508;52.512;13.450;2022-07-10T10:05:06;18.20;99.90
50556;DHT22;36508;52.512;13.450;2022-07-10T10:07:34;18.20;99.90
50556;DHT22;36508;52.512;13.450;2022-07-10T10:10:04;18.10;99.90
50556;DHT22;36508;52.512;13.450;2022-07-10T10:12:42;18.00;99.90
50556;DHT22;36508;52.512;13.450;2022-07-10T10:15:10;17.60;99.90
50556;DHT22;36508;52.512;13.450;2022-07-10T10:17:39;17.50;99.90
50556;DHT22;36508;52.512;13.450;2022-07-10T10:20:07;17.40;99.90
50556;DHT22;36508;52.512;13.450;2022-07-10T10:22:53;17.80;99.90
50556;DHT22;36508;52.512;13.450;2022-07-10T10:25:22;18.00;99.90
50556;DHT22;36508;52.512;13.450;2022-07-10T10:27:50;18.10;99.90
50556;DHT22;36508;52.512;13.450;2022-07-10T10:30:19;18.10;99.90
50556;DHT22;36508;52.512;13.450;2022-07-10T10:32:45;18.00;99.90
50556;DHT22;36508;52.512;13.450;2022-07-10T10:35:11;18.00;99.90
50556;DHT22;36508;52.512;13.450;2022-07-10T10:37:57;18.20;99.90
50556;DHT22;36508;52.512;13.450;2022-07-10T10:40:33;18.30;99.90
50556;DHT22;36508;52.512;13.450;2022-07-10T10:43:19;18.50;99.90
50556;DHT22;36508;52.512;13.450;2022-07-10T10:45:46;18.20;99.90
50556;DHT22;36508;52.512;13.450;2022-07-10T10:48:19;18.30;99.90
50556;DHT22;36508;52.512;13.450;2022-07-10T10:50:52;18.30;99.90
50556;DHT22;36508;52.512;13.450;2022-07-10T10:53:23;18.40;99.90
50556;DHT22;36508;52.512;13.450;2022-07-10T11:01:05;19.40;99.90
50556;DHT22;36508;52.512;13.450;2022-07-10T11:03:31;19.70;99.90
50556;DHT22;36508;52.512;13.450;2022-07-10T11:05:57;19.60;99.90
50556;DHT22;36508;52.512;13.450;2022-07-10T11:08:41;19.30;99.90
50556;DHT22;36508;52.512;13.450;2022-07-10T11:13:59;18.90;99.90
50556;DHT22;36508;52.512;13.450;2022-07-10T11:16:25;18.60;99.90
50556;DHT22;36508;52.512;13.450;2022-07-10T11:18:54;18.70;99.90
50556;DHT22;36508;52.512;13.450;2022-07-10T11:21:23;18.80;99.90
50556;DHT22;36508;52.512;13.450;2022-07-10T11:27:15;18.60;99.90
50556;DHT22;36508;52.512;13.450;2022-07-10T11:29:41;18.90;99.90
50556;DHT22;36508;52.512;13.450;2022-07-10T11:32:07;20.60;99.90
50556;DHT22;36508;52.512;13.450;2022-07-10T11:34:37;20.50;99.90
50556;DHT22;36508;52.512;13.450;2022-07-10T11:37:13;19.40;99.90
50556;DHT22;36508;52.512;13.450;2022-07-10T11:39:39;19.00;99.90
50556;DHT22;36508;52.512;13.450;2022-07-10T11:42:04;18.90;99.90
50556;DHT22;36508;52.512;13.450;2022-07-10T11:44:30;19.00;99.90
50556;DHT22;36508;52.512;13.450;2022-07-10T11:46:57;19.40;99.90
50556;DHT22;36508;52.512;13.450;2022-07-10T11:49:23;21.60;99.90
50556;DHT22;36508;52.512;13.450;2022-07-10T11:51:49;21.20;99.90
50556;DHT22;36508;52.512;13.450;2022-07-10T11:54:16;20.90;99.90
50556;DHT22;36508;52.512;13.450;2022-07-10T11:56:51;20.40;99.90
50556;DHT22;36508;52.512;13.450;2022-07-10T11:59:27;21.20;99.90
50556;DHT22;36508;52.512;13.450;2022-07-10T12:01:55;23.20;99.90
50556;DHT22;36508;52.512;13.450;2022-07-10T12:04:22;22.10;99.90
50556;DHT22;36508;52.512;13.450;2022-07-10T12:06:51;20.50;99.90
50556;DHT22;36508;52.512;13.450;2022-07-10T12:09:19;20.00;99.90
50556;DHT22;36508;52.512;13.450;2022-07-10T12:12:02;19.60;99.90
50556;DHT22;36508;52.512;13.450;2022-07-10T12:15:03;19.50;99.90
50556;DHT22;36508;52.512;13.450;2022-07-10T12:17:29;19.40;99.90
50556;DHT22;36508;52.512;13.450;2022-07-10T12:19:55;19.40;99.90
50556;DHT22;36508;52.512;13.450;2022-07-10T12:22:21;19.20;99.90
50556;DHT22;36508;52.512;13.450;2022-07-10T12:24:49;19.40;99.90
50556;DHT22;36508;52.512;13.450;2022-07-10T12:27:40;19.70;99.90
50556;DHT22;36508;52.512;13.450;2022-07-10T12:30:06;21.20;99.90
50556;DHT22;36508;52.512;13.450;2022-07-10T12:32:32;21.50;99.90
50556;DHT22;36508;52.512;13.450;2022-07-10T12:34:58;21.20;99.90
50556;DHT22;36508;52.512;13.450;2022-07-10T12:37:25;20.30;99.90
50556;DHT22;36508;52.512;13.450;2022-07-10T12:39:52;19.80;99.90
50556;DHT22;36508;52.512;13.450;2022-07-10T12:44:51;19.10;99.90
50556;DHT22;36508;52.512;13.450;2022-07-10T12:47:21;19.00;99.90
50556;DHT22;36508;52.512;13.450;2022-07-10T12:52:21;19.70;99.90
50556;DHT22;36508;52.512;13.450;2022-07-10T12:54:48;19.90;99.90
50556;DHT22;36508;52.512;13.450;2022-07-10T12:57:14;20.10;99.90
50556;DHT22;36508;52.512;13.450;2022-07-10T12:59:39;19.70;99.90
50556;DHT22;36508;52.512;13.450;2022-07-10T13:02:21;19.60;99.90
50556;DHT22;36508;52.512;13.450;2022-07-10T13:04:54;19.80;99.90
50556;DHT22;36508;52.512;13.450;2022-07-10T13:07:28;19.90;99.90
50556;DHT22;36508;52.512;13.450;2022-07-10T13:09:53;20.00;99.90
50556;DHT22;36508;52.512;13.450;2022-07-10T13:12:19;20.40;99.90
50556;DHT22;36508;52.512;13.450;2022-07-10T13:14:45;20.70;99.90
50556;DHT22;36508;52.512;13.450;2022-07-10T13:17:12;20.40;99.90
50556;DHT22;36508;52.512;13.450;2022-07-10T13:19:37;20.60;99.90
50556;DHT22;36508;52.512;13.450;2022-07-10T13:22:03;20.10;99.90
50556;DHT22;36508;52.512;13.450;2022-07-10T13:24:29;20.20;99.90
50556;DHT22;36508;52.512;13.450;2022-07-10T13:26:55;20.10;99.90
50556;DHT22;36508;52.512;13.450;2022-07-10T13:29:22;19.90;99.90
50556;DHT22;36508;52.512;13.450;2022-07-10T13:31:48;19.70;99.90
50556;DHT22;36508;52.512;13.450;2022-07-10T13:34:14;19.70;99.90
50556;DHT22;36508;52.512;13.450;2022-07-10T13:36:40;19.80;99.90
50556;DHT22;36508;52.512;13.450;2022-07-10T13:39:06;19.90;99.90
50556;DHT22;36508;52.512;13.450;2022-07-10T13:41:32;20.00;99.90
50556;DHT22;36508;52.512;13.450;2022-07-10T13:43:58;20.20;99.90
50556;DHT22;36508;52.512;13.450;2022-07-10T13:46:24;20.40;99.90
50556;DHT22;36508;52.512;13.450;2022-07-10T13:48:50;20.40;99.90
50556;DHT22;36508;52.512;13.450;2022-07-10T13:51:15;20.00;99.90
50556;DHT22;36508;52.512;13.450;2022-07-10T13:53:41;19.80;99.90
50556;DHT22;36508;52.512;13.450;2022-07-10T13:56:08;19.70;99.90
50556;DHT22;36508;52.512;13.450;2022-07-10T13:58:35;19.60;99.90
50556;DHT22;36508;52.512;13.450;2022-07-10T14:01:04;19.80;99.90
50556;DHT22;36508;52.512;13.450;2022-07-10T14:03:31;20.10;99.90
50556;DHT22;36508;52.512;13.450;2022-07-10T14:05:57;20.40;99.90
50556;DHT22;36508;52.512;13.450;2022-07-10T14:08:23;20.30;99.90
50556;DHT22;36508;52.512;13.450;2022-07-10T14:10:50;20.30;99.90
50556;DHT22;36508;52.512;13.450;2022-07-10T14:13:16;20.40;99.90
50556;DHT22;36508;52.512;13.450;2022-07-10T14:15:43;20.40;99.90
50556;DHT22;36508;52.512;13.450;2022-07-10T14:18:11;20.10;99.90
50556;DHT22;36508;52.512;13.450;2022-07-10T14:20:38;19.60;99.90
50556;DHT22;36508;52.512;13.450;2022-07-10T14:23:22;19.70;99.90
50556;DHT22;36508;52.512;13.450;2022-07-10T14:25:48;19.90;99.90
50556;DHT22;36508;52.512;13.450;2022-07-10T14:28:14;20.30;99.90
50556;DHT22;36508;52.512;13.450;2022-07-10T14:30:40;20.40;99.90
50556;DHT22;36508;52.512;13.450;2022-07-10T14:33:06;20.40;99.90
50556;DHT22;36508;52.512;13.450;2022-07-10T14:35:32;20.60;99.90
50556;DHT22;36508;52.512;13.450;2022-07-10T14:37:58;20.60;99.90
50556;DHT22;36508;52.512;13.450;2022-07-10T14:40:23;20.60;99.90
50556;DHT22;36508;52.512;13.450;2022-07-10T14:42:49;20.50;99.90
50556;DHT22;36508;52.512;13.450;2022-07-10T14:45:15;20.50;99.90
50556;DHT22;36508;52.512;13.450;2022-07-10T14:47:40;20.70;99.90
50556;DHT22;36508;52.512;13.450;2022-07-10T14:50:07;20.70;99.90
50556;DHT22;36508;52.512;13.450;2022-07-10T14:52:33;21.00;99.90
50556;DHT22;36508;52.512;13.450;2022-07-10T14:54:59;21.30;99.90
50556;DHT22;36508;52.512;13.450;2022-07-10T14:57:27;21.30;99.90
50556;DHT22;36508;52.512;13.450;2022-07-10T14:59:53;21.10;99.90
50556;DHT22;36508;52.512;13.450;2022-07-10T15:02:19;21.20;99.90
50556;DHT22;36508;52.512;13.450;2022-07-10T15:04:44;21.40;99.90
50556;DHT22;36508;52.512;13.450;2022-07-10T15:07:10;21.40;99.90
50556;DHT22;36508;52.512;13.450;2022-07-10T15:09:37;21.30;99.90
50556;DHT22;36508;52.512;13.450;2022-07-10T15:12:03;21.40;99.90
50556;DHT22;36508;52.512;13.450;2022-07-10T15:14:28;21.70;99.90
50556;DHT22;36508;52.512;13.450;2022-07-10T15:16:54;21.90;99.90
50556;DHT22;36508;52.512;13.450;2022-07-10T15:19:20;22.00;99.90
50556;DHT22;36508;52.512;13.450;2022-07-10T15:21:46;22.20;99.90
50556;DHT22;36508;52.512;13.450;2022-07-10T15:24:11;22.20;99.90
50556;DHT22;36508;52.512;13.450;2022-07-10T15:26:37;22.30;99.90
50556;DHT22;36508;52.512;13.450;2022-07-10T15:29:03;22.60;99.90
50556;DHT22;36508;52.512;13.450;2022-07-10T15:31:29;23.70;99.90
50556;DHT22;36508;52.512;13.450;2022-07-10T15:33:55;24.50;99.90
50556;DHT22;36508;52.512;13.450;2022-07-10T15:36:20;24.70;99.90
50556;DHT22;36508;52.512;13.450;2022-07-10T15:38:47;25.60;99.40
50556;DHT22;36508;52.512;13.450;2022-07-10T15:41:13;24.40;98.60
50556;DHT22;36508;52.512;13.450;2022-07-10T15:43:38;23.20;98.90
50556;DHT22;36508;52.512;13.450;2022-07-10T15:46:04;23.20;99.90
50556;DHT22;36508;52.512;13.450;2022-07-10T15:48:32;24.00;98.90
50556;DHT22;36508;52.512;13.450;2022-07-10T15:50:58;24.10;98.20
50556;DHT22;36508;52.512;13.450;2022-07-10T15:53:24;24.00;98.20